Allentown, New York
Current Conditions -  °F | °C
As of 12:56 AM on Saturday 29 Nov 2014 (Local Time) from KELZ Reporting Station
Overcast Overcast  
Wind Chill: 19°   Ceiling: 7000
Heat Index: 19°   Visibility: 10mi
Dew Point: 11°   Wind: 3mph
Humidity: 71%   Direction: 190°S
Pressure: 30.13"   Gusts: NA
Location:  42.08°N, 78.06°W
Report Text: KELZ 290556Z AUTO 19003KT 10SM OVC070 M07/M12 A3013 RMK AO2 SLP236 T10721117 11067 21078 50001
Loading
Personal Weather Stations






























Interactive Weather Map New forecast layout! Learn more

10-Day Weather Forecast

Advertisements
Track Severe Weather on mobile